createdAt,value
2023-03-02T00:00:16.503Z,99308.41
2023-03-02T00:01:19.341Z,99303.34
2023-03-02T00:02:22.335Z,99310.09
2023-03-02T00:03:25.738Z,99305.84
2023-03-02T00:04:50.071Z,99305.91
2023-03-02T00:05:54.460Z,99298.25
2023-03-02T00:06:59.009Z,99299.94
2023-03-02T00:08:02.219Z,99304.19
2023-03-02T00:09:06.109Z,99303.31
2023-03-02T00:10:09.017Z,99293.13
2023-03-02T00:11:11.891Z,99290.59
2023-03-02T00:12:15.945Z,99287.22
2023-03-02T00:13:18.689Z,99285.53
2023-03-02T00:14:20.493Z,99283.88
2023-03-02T00:15:23.309Z,99283.91
2023-03-02T00:16:25.564Z,99286.47
2023-03-02T00:17:28.857Z,99282.28
2023-03-02T00:18:31.272Z,99291.59
2023-03-02T00:19:36.338Z,99279.78
2023-03-02T00:20:38.704Z,99280.63
2023-03-02T00:21:43.033Z,99286.56
2023-03-02T00:22:45.928Z,99278.06
2023-03-02T00:23:48.675Z,99284.00
2023-03-02T00:24:50.561Z,99282.25
2023-03-02T00:25:53.274Z,99283.94
2023-03-02T00:26:55.195Z,99274.63
2023-03-02T00:27:58.089Z,99280.56
2023-03-02T00:29:00.515Z,99274.63
2023-03-02T00:30:03.500Z,99280.53
2023-03-02T00:31:06.192Z,99284.75
2023-03-02T00:32:09.204Z,99278.00
2023-03-02T00:33:11.166Z,99278.81
2023-03-02T00:34:13.980Z,99277.97
2023-03-02T00:35:15.887Z,99280.53
2023-03-02T00:36:19.267Z,99277.16
2023-03-02T00:37:22.505Z,99280.53
2023-03-02T00:38:25.729Z,99268.72
2023-03-02T00:39:27.632Z,99273.78
2023-03-02T00:40:30.850Z,99272.09
2023-03-02T00:41:32.714Z,99276.34
2023-03-02T00:42:35.495Z,99276.38
2023-03-02T00:43:37.381Z,99269.59
2023-03-02T00:44:40.168Z,99266.22
2023-03-02T00:45:42.069Z,99264.53
2023-03-02T00:46:45.579Z,99268.75
2023-03-02T00:47:47.468Z,99265.34
2023-03-02T00:48:50.597Z,99272.09
2023-03-02T00:49:52.703Z,99264.50
2023-03-02T00:50:55.594Z,99265.31
2023-03-02T00:51:57.356Z,99263.63
2023-03-02T00:53:01.545Z,99267.84
2023-03-02T00:54:04.458Z,99263.63
2023-03-02T00:55:09.298Z,99268.72
2023-03-02T00:56:11.664Z,99268.69
2023-03-02T00:57:19.275Z,99270.38
2023-03-02T00:58:22.038Z,99269.50
2023-03-02T00:59:28.161Z,99270.34
2023-03-02T01:01:06.196Z,99258.50
2023-03-02T01:02:11.606Z,99262.72
2023-03-02T01:03:13.571Z,99274.56
2023-03-02T01:04:16.356Z,99265.25
2023-03-02T01:05:18.568Z,99256.78
2023-03-02T01:06:22.342Z,99263.56
2023-03-02T01:07:26.205Z,99262.72
2023-03-02T01:08:30.454Z,99259.38
2023-03-02T01:09:32.674Z,99261.09
2023-03-02T01:10:35.646Z,99267.06
2023-03-02T01:11:37.538Z,99261.16
2023-03-02T01:12:41.017Z,99263.72
2023-03-02T01:13:42.956Z,99263.69
2023-03-02T01:14:48.682Z,99255.25
2023-03-02T01:16:00.447Z,99253.56
2023-03-02T01:17:03.601Z,99250.19
2023-03-02T01:18:05.563Z,99256.13
2023-03-02T01:19:08.932Z,99253.59
2023-03-02T01:20:15.037Z,99256.13
2023-03-02T01:21:19.258Z,99258.69
2023-03-02T01:22:22.166Z,99262.91
2023-03-02T01:23:25.074Z,99252.75
2023-03-02T01:24:28.293Z,99261.22
2023-03-02T01:25:31.153Z,99260.38
2023-03-02T01:26:33.697Z,99253.59
2023-03-02T01:27:36.747Z,99262.06
2023-03-02T01:28:38.538Z,99245.13
2023-03-02T01:29:41.557Z,99250.22
2023-03-02T01:30:43.664Z,99245.13
2023-03-02T01:31:46.509Z,99256.13
2023-03-02T01:32:48.301Z,99251.91
2023-03-02T01:33:51.629Z,99241.75
2023-03-02T01:34:53.466Z,99237.53
2023-03-02T01:35:56.329Z,99259.53
2023-03-02T01:36:58.222Z,99251.91
2023-03-02T01:38:00.978Z,99250.25
2023-03-02T01:39:02.980Z,99246.84
2023-03-02T01:40:09.301Z,99245.16
2023-03-02T01:41:11.429Z,99244.34
2023-03-02T01:42:14.287Z,99246.88
2023-03-02T01:43:16.666Z,99243.50
2023-03-02T01:44:40.703Z,99245.19
2023-03-02T01:45:53.481Z,99239.28
2023-03-02T01:47:18.729Z,99230.81
2023-03-02T01:48:46.404Z,99225.72
2023-03-02T01:49:55.217Z,99234.19
2023-03-02T01:50:59.074Z,99234.19
2023-03-02T01:52:02.054Z,99235.06
2023-03-02T01:53:05.670Z,99230.84
2023-03-02T01:54:10.371Z,99223.22
2023-03-02T01:55:17.001Z,99228.31
2023-03-02T01:56:21.772Z,99222.38
2023-03-02T01:57:26.864Z,99232.53
2023-03-02T01:58:29.280Z,99225.75
2023-03-02T01:59:33.971Z,99224.06
2023-03-02T02:00:38.414Z,99223.22
2023-03-02T02:01:42.840Z,99218.16
2023-03-02T02:02:44.870Z,99228.28
2023-03-02T02:03:49.905Z,99209.66
2023-03-02T02:04:53.007Z,99216.44
2023-03-02T02:06:02.392Z,99217.28
2023-03-02T02:07:06.299Z,99220.66
2023-03-02T02:08:09.661Z,99221.50
2023-03-02T02:09:15.449Z,99206.28
2023-03-02T02:10:20.898Z,99212.22
2023-03-02T02:11:22.788Z,99222.38
2023-03-02T02:12:26.812Z,99209.72
2023-03-02T02:13:28.673Z,99205.50
2023-03-02T02:14:31.791Z,99210.59
2023-03-02T02:15:34.185Z,99203.84
2023-03-02T02:16:37.843Z,99200.44
2023-03-02T02:17:40.471Z,99202.97
2023-03-02T02:18:43.835Z,99205.50
2023-03-02T02:19:54.289Z,99208.88
2023-03-02T02:20:57.555Z,99203.78
2023-03-02T02:21:59.813Z,99200.41
2023-03-02T02:23:10.712Z,99203.78
2023-03-02T02:24:16.719Z,99206.31
2023-03-02T02:25:27.673Z,99199.53
2023-03-02T02:26:32.362Z,99198.72
2023-03-02T02:27:36.003Z,99196.16
2023-03-02T02:28:42.446Z,99200.41
2023-03-02T02:29:47.932Z,99191.09
2023-03-02T02:30:51.874Z,99189.38
2023-03-02T02:31:57.426Z,99197.84
2023-03-02T02:33:00.175Z,99193.66
2023-03-02T02:34:10.757Z,99196.16
2023-03-02T02:35:16.822Z,99194.47
2023-03-02T02:36:22.275Z,99190.25
2023-03-02T02:37:29.090Z,99186.88
2023-03-02T02:38:32.392Z,99190.25
2023-03-02T02:39:36.632Z,99191.97
2023-03-02T02:40:43.296Z,99188.63
2023-03-02T02:41:51.380Z,99186.13
2023-03-02T02:42:54.798Z,99186.97
2023-03-02T02:43:56.625Z,99178.53
2023-03-02T02:45:01.507Z,99186.13
2023-03-02T02:46:03.738Z,99187.00
2023-03-02T02:47:13.242Z,99184.47
2023-03-02T02:48:17.006Z,99176.84
2023-03-02T02:49:28.993Z,99186.97
2023-03-02T02:50:33.280Z,99176.81
2023-03-02T02:51:36.240Z,99172.59
2023-03-02T02:52:39.545Z,99180.19
2023-03-02T02:53:45.357Z,99179.34
2023-03-02T02:54:48.983Z,99176.81
2023-03-02T02:55:53.483Z,99176.81
2023-03-02T02:56:58.024Z,99183.59
2023-03-02T02:58:09.209Z,99187.81
2023-03-02T02:59:15.219Z,99176.88
2023-03-02T03:00:20.842Z,99180.25
2023-03-02T03:01:25.906Z,99176.84
2023-03-02T03:02:31.430Z,99177.72
2023-03-02T03:03:35.507Z,99171.78
2023-03-02T03:04:41.990Z,99174.31
2023-03-02T03:05:43.885Z,99175.16
2023-03-02T03:06:52.022Z,99173.47
2023-03-02T03:08:07.929Z,99169.25
2023-03-02T03:09:10.584Z,99165.03
2023-03-02T03:10:21.533Z,99165.06
2023-03-02T03:11:26.416Z,99170.13
2023-03-02T03:12:33.551Z,99160.84
2023-03-02T03:13:35.432Z,99159.16
2023-03-02T03:14:41.410Z,99160.84
2023-03-02T03:15:44.926Z,99163.38
2023-03-02T03:16:50.749Z,99157.44
2023-03-02T03:17:55.209Z,99157.44
2023-03-02T03:19:02.859Z,99160.81
2023-03-02T03:20:07.548Z,99157.44
2023-03-02T03:21:11.962Z,99162.47
2023-03-02T03:22:16.430Z,99156.56
2023-03-02T03:23:19.631Z,99156.53
2023-03-02T03:24:23.162Z,99156.53
2023-03-02T03:25:26.201Z,99155.72
2023-03-02T03:26:31.493Z,99160.81
2023-03-02T03:27:34.905Z,99157.44
2023-03-02T03:28:39.233Z,99153.25
2023-03-02T03:29:46.858Z,99160.00
2023-03-02T03:30:49.979Z,99153.22
2023-03-02T03:31:54.275Z,99157.47
2023-03-02T03:32:56.968Z,99156.63
2023-03-02T03:34:00.585Z,99157.44
2023-03-02T03:35:08.780Z,99156.63
2023-03-02T03:36:10.953Z,99151.56
2023-03-02T03:37:16.794Z,99150.69
2023-03-02T03:38:18.704Z,99149.81
2023-03-02T03:39:22.485Z,99150.66
2023-03-02T03:40:25.363Z,99150.69
2023-03-02T03:41:28.726Z,99152.34
2023-03-02T03:42:30.690Z,99153.22
2023-03-02T03:43:36.046Z,99147.28
2023-03-02T03:44:38.233Z,99154.06
2023-03-02T03:45:41.431Z,99148.13
2023-03-02T03:46:43.577Z,99153.19
2023-03-02T03:47:46.754Z,99155.72
2023-03-02T03:48:48.602Z,99150.66
2023-03-02T03:49:51.571Z,99152.34
2023-03-02T03:50:53.719Z,99153.22
2023-03-02T03:51:57.170Z,99150.69
2023-03-02T03:52:59.194Z,99154.09
2023-03-02T03:54:04.480Z,99149.91
2023-03-02T03:55:12.612Z,99145.69
2023-03-02T03:56:17.390Z,99144.03
2023-03-02T03:57:19.551Z,99138.97
2023-03-02T03:58:22.591Z,99142.34
2023-03-02T03:59:27.194Z,99140.69
2023-03-02T04:00:33.845Z,99139.84
2023-03-02T04:01:43.092Z,99150.00
2023-03-02T04:02:46.415Z,99146.63
2023-03-02T04:03:48.401Z,99147.47
2023-03-02T04:04:51.559Z,99144.09
2023-03-02T04:05:54.529Z,99143.25
2023-03-02T04:06:57.753Z,99146.63
2023-03-02T04:08:02.189Z,99148.31
2023-03-02T04:09:06.462Z,99152.53
2023-03-02T04:10:10.950Z,99145.75
2023-03-02T04:11:15.385Z,99147.47
2023-03-02T04:12:17.270Z,99147.44
2023-03-02T04:13:26.183Z,99143.25
2023-03-02T04:14:29.560Z,99139.84
2023-03-02T04:15:32.743Z,99144.94
2023-03-02T04:16:36.072Z,99131.44
2023-03-02T04:17:38.878Z,99137.34
2023-03-02T04:18:41.213Z,99133.97
2023-03-02T04:19:45.625Z,99141.59
2023-03-02T04:20:47.504Z,99143.25
2023-03-02T04:21:53.082Z,99140.72
2023-03-02T04:22:56.498Z,99139.03
2023-03-02T04:23:59.453Z,99139.88
2023-03-02T04:25:01.310Z,99140.72
2023-03-02T04:26:05.208Z,99131.44
2023-03-02T04:27:07.033Z,99140.72
2023-03-02T04:28:11.122Z,99132.28
2023-03-02T04:29:15.048Z,99134.81
2023-03-02T04:30:23.545Z,99137.34
2023-03-02T04:31:25.901Z,99133.09
2023-03-02T04:32:28.839Z,99137.34
2023-03-02T04:33:31.302Z,99128.03
2023-03-02T04:34:34.627Z,99133.09
2023-03-02T04:35:37.034Z,99133.09
2023-03-02T04:36:40.984Z,99131.38
2023-03-02T04:37:47.055Z,99135.59
2023-03-02T04:38:50.317Z,99136.44
2023-03-02T04:39:52.901Z,99131.41
2023-03-02T04:40:55.775Z,99125.47
2023-03-02T04:41:57.606Z,99129.69
2023-03-02T04:43:00.369Z,99122.09
2023-03-02T04:44:02.282Z,99130.53
2023-03-02T04:45:05.795Z,99127.16
2023-03-02T04:46:09.826Z,99128.84
2023-03-02T04:47:12.781Z,99129.69
2023-03-02T04:48:14.981Z,99121.25
2023-03-02T04:49:18.848Z,99121.25
2023-03-02T04:50:20.889Z,99123.81
2023-03-02T04:51:26.159Z,99120.41
2023-03-02T04:52:27.985Z,99122.13
2023-03-02T04:53:30.802Z,99122.13
2023-03-02T04:54:32.984Z,99122.13
2023-03-02T04:55:36.225Z,99123.81
2023-03-02T04:56:38.414Z,99120.44
2023-03-02T04:57:41.137Z,99126.38
2023-03-02T04:58:42.934Z,99126.34
2023-03-02T04:59:45.777Z,99122.13
2023-03-02T05:00:47.590Z,99123.81
2023-03-02T05:01:51.766Z,99122.13
2023-03-02T05:02:53.661Z,99124.66
2023-03-02T05:03:56.378Z,99131.41
2023-03-02T05:04:58.282Z,99127.19
2023-03-02T05:06:02.407Z,99124.66
2023-03-02T05:07:04.195Z,99132.25
2023-03-02T05:08:06.969Z,99131.41
2023-03-02T05:09:08.843Z,99127.16
2023-03-02T05:10:12.475Z,99137.28
2023-03-02T05:11:22.373Z,99133.94
2023-03-02T05:12:25.453Z,99128.00
2023-03-02T05:13:27.559Z,99128.84
2023-03-02T05:14:31.943Z,99134.75
2023-03-02T05:15:37.264Z,99133.06
2023-03-02T05:16:42.107Z,99129.69
2023-03-02T05:17:45.378Z,99132.22
2023-03-02T05:18:49.068Z,99132.22
2023-03-02T05:19:50.835Z,99125.47
2023-03-02T05:20:54.859Z,99133.06
2023-03-02T05:21:57.573Z,99130.53
2023-03-02T05:23:02.190Z,99128.84
2023-03-02T05:24:04.580Z,99135.63
2023-03-02T05:25:08.328Z,99137.31
2023-03-02T05:26:10.665Z,99138.97
2023-03-02T05:27:13.437Z,99138.13
2023-03-02T05:28:15.557Z,99130.47
2023-03-02T05:29:18.312Z,99144.03
2023-03-02T05:30:20.641Z,99136.41
2023-03-02T05:31:25.420Z,99146.53
2023-03-02T05:32:28.061Z,99146.53
2023-03-02T05:33:32.391Z,99142.31
2023-03-02T05:34:34.239Z,99138.91
2023-03-02T05:35:37.469Z,99137.22
2023-03-02T05:36:39.381Z,99143.13
2023-03-02T05:37:44.589Z,99142.28
2023-03-02T05:38:47.359Z,99143.13
2023-03-02T05:39:49.161Z,99139.75
2023-03-02T05:40:52.316Z,99145.69
2023-03-02T05:41:54.058Z,99141.47
2023-03-02T05:42:56.955Z,99144.00
2023-03-02T05:43:59.125Z,99139.75
2023-03-02T05:45:01.900Z,99146.53
2023-03-02T05:46:03.954Z,99148.22
2023-03-02T05:47:07.183Z,99144.81
2023-03-02T05:48:10.420Z,99143.09
2023-03-02T05:49:14.607Z,99143.13
2023-03-02T05:50:16.664Z,99144.81
2023-03-02T05:51:19.400Z,99135.50
2023-03-02T05:52:21.165Z,99150.69
2023-03-02T05:53:24.111Z,99142.19
2023-03-02T05:54:26.037Z,99146.34
2023-03-02T05:55:29.009Z,99144.59
2023-03-02T05:56:31.130Z,99141.94
2023-03-02T05:57:34.492Z,99141.81
2023-03-02T05:58:36.357Z,99146.72
2023-03-02T05:59:39.231Z,99144.84
2023-03-02T06:00:41.206Z,99143.00
2023-03-02T06:01:44.001Z,99142.94
2023-03-02T06:02:46.020Z,99153.81
2023-03-02T06:03:51.268Z,99156.22
2023-03-02T06:04:54.424Z,99149.22
2023-03-02T06:05:57.221Z,99153.25
2023-03-02T06:06:58.993Z,99147.03
2023-03-02T06:08:01.778Z,99148.50
2023-03-02T06:09:04.071Z,99144.75
2023-03-02T06:10:08.002Z,99146.94
2023-03-02T06:11:10.092Z,99144.03
2023-03-02T06:12:12.897Z,99147.91
2023-03-02T06:13:15.667Z,99145.81
2023-03-02T06:14:18.648Z,99139.44
2023-03-02T06:15:20.846Z,99142.44
2023-03-02T06:16:23.659Z,99143.75
2023-03-02T06:17:25.579Z,99139.06
2023-03-02T06:18:28.423Z,99145.50
2023-03-02T06:19:30.319Z,99145.91
2023-03-02T06:20:34.426Z,99138.56
2023-03-02T06:21:36.521Z,99142.25
2023-03-02T06:22:41.167Z,99133.44
2023-03-02T06:23:43.954Z,99131.63
2023-03-02T06:24:45.884Z,99133.03
2023-03-02T06:25:49.087Z,99136.81
2023-03-02T06:26:52.864Z,99140.56
2023-03-02T06:27:55.708Z,99138.50
2023-03-02T06:28:58.873Z,99138.38
2023-03-02T06:30:00.895Z,99135.72
2023-03-02T06:31:04.001Z,99136.44
2023-03-02T06:32:06.092Z,99136.97
2023-03-02T06:33:08.880Z,99133.97
2023-03-02T06:34:10.964Z,99139.50
2023-03-02T06:35:14.283Z,99141.78
2023-03-02T06:36:17.597Z,99141.44
2023-03-02T06:37:20.677Z,99136.88
2023-03-02T06:38:22.703Z,99136.63
2023-03-02T06:39:25.486Z,99139.00
2023-03-02T06:40:27.641Z,99139.56
2023-03-02T06:41:30.679Z,99136.56
2023-03-02T06:42:32.537Z,99133.56
2023-03-02T06:43:35.718Z,99133.03
2023-03-02T06:44:37.480Z,99136.06
2023-03-02T06:45:40.396Z,99137.28
2023-03-02T06:46:43.085Z,99141.72
2023-03-02T06:47:45.808Z,99142.84
2023-03-02T06:48:47.580Z,99142.50
2023-03-02T06:49:50.431Z,99145.50
2023-03-02T06:50:52.572Z,99144.09
2023-03-02T06:51:56.628Z,99143.38
2023-03-02T06:52:58.517Z,99136.88
2023-03-02T06:54:01.333Z,99135.44
2023-03-02T06:55:03.222Z,99130.50
2023-03-02T06:56:07.107Z,99132.50
2023-03-02T06:57:08.894Z,99129.44
2023-03-02T06:58:13.145Z,99128.19
2023-03-02T06:59:15.017Z,99136.50
2023-03-02T07:00:26.420Z,99131.38
2023-03-02T07:01:33.052Z,99130.75
2023-03-02T07:02:36.271Z,99127.50
2023-03-02T07:03:38.082Z,99133.59
2023-03-02T07:04:41.026Z,99136.06
2023-03-02T07:05:45.745Z,99129.63
2023-03-02T07:06:49.063Z,99134.31
2023-03-02T07:07:52.533Z,99133.84
2023-03-02T07:08:55.294Z,99132.34
2023-03-02T07:09:57.104Z,99138.50
2023-03-02T07:10:59.873Z,99136.00
2023-03-02T07:12:02.030Z,99134.41
2023-03-02T07:13:04.782Z,99137.06
2023-03-02T07:14:06.616Z,99137.22
2023-03-02T07:15:13.980Z,99135.97
2023-03-02T07:16:15.990Z,99142.25
2023-03-02T07:17:18.885Z,99133.81
2023-03-02T07:18:20.739Z,99135.66
2023-03-02T07:19:23.451Z,99131.44
2023-03-02T07:20:26.668Z,99141.06
2023-03-02T07:21:28.574Z,99141.44
2023-03-02T07:22:31.648Z,99140.28
2023-03-02T07:23:35.904Z,99137.69
2023-03-02T07:24:37.741Z,99136.13
2023-03-02T07:25:40.513Z,99138.75
2023-03-02T07:26:42.298Z,99146.72
2023-03-02T07:27:45.238Z,99141.13
2023-03-02T07:28:47.029Z,99139.78
2023-03-02T07:29:49.807Z,99143.88
2023-03-02T07:30:51.689Z,99140.97
2023-03-02T07:31:57.225Z,99149.16
2023-03-02T07:33:00.144Z,99149.69
2023-03-02T07:34:02.367Z,99138.81
2023-03-02T07:35:05.447Z,99147.63
2023-03-02T07:36:08.387Z,99138.34
2023-03-02T07:37:11.170Z,99144.41
2023-03-02T07:38:12.996Z,99143.50
2023-03-02T07:39:17.099Z,99150.31
2023-03-02T07:40:19.336Z,99142.38
2023-03-02T07:41:22.762Z,99151.44
2023-03-02T07:42:24.509Z,99142.34
2023-03-02T07:43:35.886Z,99144.22
2023-03-02T07:44:37.625Z,99140.97
2023-03-02T07:45:40.345Z,99134.22
2023-03-02T07:46:42.225Z,99135.94
2023-03-02T07:47:44.975Z,99136.91
2023-03-02T07:48:46.879Z,99140.78
2023-03-02T07:49:49.756Z,99138.63
2023-03-02T07:50:51.515Z,99138.22
2023-03-02T07:51:54.269Z,99140.41
2023-03-02T07:52:56.917Z,99134.84
2023-03-02T07:54:02.849Z,99141.25
2023-03-02T07:55:07.564Z,99139.25
2023-03-02T07:56:10.806Z,99131.50
2023-03-02T07:57:16.055Z,99137.78
2023-03-02T07:58:17.844Z,99141.44
2023-03-02T07:59:21.166Z,99138.06
2023-03-02T08:00:23.437Z,99139.94
2023-03-02T08:01:26.305Z,99131.25
2023-03-02T08:02:28.455Z,99138.03
2023-03-02T08:03:31.234Z,99141.44
2023-03-02T08:04:35.819Z,99137.94
2023-03-02T08:05:38.752Z,99136.28
2023-03-02T08:06:42.453Z,99139.94
2023-03-02T08:07:47.423Z,99136.94
2023-03-02T08:08:49.651Z,99137.22
2023-03-02T08:09:52.518Z,99129.56
2023-03-02T08:10:55.867Z,99131.31
2023-03-02T08:11:58.841Z,99127.22
2023-03-02T08:13:00.812Z,99132.56
2023-03-02T08:14:04.414Z,99127.44
2023-03-02T08:15:07.195Z,99130.22
2023-03-02T08:16:12.415Z,99132.84
2023-03-02T08:17:15.194Z,99126.09
2023-03-02T08:18:17.131Z,99127.03
2023-03-02T08:19:20.547Z,99122.84
2023-03-02T08:20:22.432Z,99127.25
2023-03-02T08:21:26.410Z,99118.72
2023-03-02T08:22:29.130Z,99121.50
2023-03-02T08:23:30.913Z,99121.50
2023-03-02T08:24:33.979Z,99117.16
2023-03-02T08:25:35.893Z,99120.56
2023-03-02T08:26:40.337Z,99118.72
2023-03-02T08:27:43.782Z,99119.50
2023-03-02T08:28:46.765Z,99121.84
2023-03-02T08:29:48.614Z,99118.13
2023-03-02T08:30:56.733Z,99117.69
2023-03-02T08:31:59.096Z,99112.19
2023-03-02T08:33:05.910Z,99114.41
2023-03-02T08:34:09.832Z,99108.97
2023-03-02T08:35:12.812Z,99119.00
2023-03-02T08:36:17.417Z,99110.06
2023-03-02T08:37:38.801Z,99107.13
2023-03-02T08:38:41.100Z,99115.50
2023-03-02T08:39:43.870Z,99104.06
2023-03-02T08:40:45.617Z,99117.75
2023-03-02T08:41:51.048Z,99102.06
2023-03-02T08:42:56.999Z,99107.91
2023-03-02T08:43:59.754Z,99099.13
2023-03-02T08:45:01.577Z,99094.78
2023-03-02T08:46:04.796Z,99100.63
2023-03-02T08:47:06.669Z,99102.19
2023-03-02T08:48:09.908Z,99095.94
2023-03-02T08:49:11.721Z,99105.22
2023-03-02T08:50:14.451Z,99098.84
2023-03-02T08:51:19.831Z,99093.44
2023-03-02T08:52:22.599Z,99091.41
2023-03-02T08:53:25.111Z,99093.66
2023-03-02T08:54:28.641Z,99088.22
2023-03-02T08:55:30.489Z,99095.63
2023-03-02T08:56:35.546Z,99093.59
2023-03-02T08:57:41.604Z,99086.59
2023-03-02T08:58:44.385Z,99090.66
2023-03-02T08:59:46.124Z,99088.72
2023-03-02T09:00:49.222Z,99084.22
2023-03-02T09:01:51.996Z,99094.22
2023-03-02T09:02:54.089Z,99089.69
2023-03-02T09:03:57.552Z,99089.44
2023-03-02T09:05:00.381Z,99086.38
2023-03-02T09:06:03.188Z,99088.59
2023-03-02T09:07:06.167Z,99093.53
2023-03-02T09:08:08.053Z,99090.59
2023-03-02T09:09:11.954Z,99086.06
2023-03-02T09:10:14.804Z,99090.22
2023-03-02T09:11:18.061Z,99088.38
2023-03-02T09:12:20.811Z,99090.78
2023-03-02T09:13:24.054Z,99086.16
2023-03-02T09:14:27.294Z,99097.94
2023-03-02T09:15:29.107Z,99089.84
2023-03-02T09:16:52.648Z,99087.00
2023-03-02T09:17:54.607Z,99086.72
2023-03-02T09:18:57.400Z,99086.53
2023-03-02T09:20:00.687Z,99083.75
2023-03-02T09:21:03.542Z,99086.16
2023-03-02T09:22:05.288Z,99079.03
2023-03-02T09:23:08.057Z,99084.94
2023-03-02T09:24:10.163Z,99080.41
2023-03-02T09:25:12.988Z,99075.94
2023-03-02T09:26:14.773Z,99076.50
2023-03-02T09:27:17.692Z,99078.91
2023-03-02T09:28:21.580Z,99078.53
2023-03-02T09:29:25.944Z,99085.09
2023-03-02T09:30:28.612Z,99084.69
2023-03-02T09:31:31.793Z,99078.28
2023-03-02T09:32:34.947Z,99069.28
2023-03-02T09:33:57.148Z,99074.72
2023-03-02T09:35:00.286Z,99068.28
2023-03-02T09:36:05.857Z,99073.00
2023-03-02T09:37:08.938Z,99074.47
2023-03-02T09:38:12.829Z,99066.47
2023-03-02T09:39:15.606Z,99063.75
2023-03-02T09:40:20.005Z,99062.94
2023-03-02T09:41:50.712Z,99072.31
2023-03-02T09:43:11.980Z,99064.31
2023-03-02T09:44:35.985Z,99063.47
2023-03-02T09:46:06.051Z,99059.31
2023-03-02T09:47:14.149Z,99062.94
2023-03-02T09:48:24.475Z,99061.81
2023-03-02T09:49:33.177Z,99066.00
2023-03-02T09:50:38.091Z,99058.91
2023-03-02T09:51:45.084Z,99050.09
2023-03-02T09:52:52.351Z,99055.72
2023-03-02T09:54:03.294Z,99059.50
2023-03-02T09:55:14.757Z,99063.53
2023-03-02T09:56:19.154Z,99055.44
2023-03-02T09:57:22.570Z,99053.34
2023-03-02T09:58:27.744Z,99059.09
2023-03-02T09:59:33.737Z,99061.56
2023-03-02T10:00:40.403Z,99057.94
2023-03-02T10:01:47.012Z,99059.72
2023-03-02T10:02:50.817Z,99058.13
2023-03-02T10:03:57.353Z,99056.47
2023-03-02T10:05:03.548Z,99053.25
2023-03-02T10:06:05.689Z,99057.72
2023-03-02T10:07:13.100Z,99058.03
2023-03-02T10:08:17.463Z,99051.16
2023-03-02T10:09:20.209Z,99049.50
2023-03-02T10:10:26.524Z,99051.81
2023-03-02T10:11:36.630Z,99057.53
2023-03-02T10:12:46.917Z,99044.31
2023-03-02T10:13:52.394Z,99049.50
2023-03-02T10:14:57.389Z,99043.38
2023-03-02T10:16:15.952Z,99046.59
2023-03-02T10:17:39.183Z,99044.66
2023-03-02T10:18:45.458Z,99051.50
2023-03-02T10:19:53.476Z,99043.50
2023-03-02T10:21:01.157Z,99045.78
2023-03-02T10:22:14.387Z,99042.97
2023-03-02T10:23:29.260Z,99036.75
2023-03-02T10:24:35.261Z,99039.13
2023-03-02T10:25:43.641Z,99042.47
2023-03-02T10:26:48.240Z,99037.78
2023-03-02T10:27:51.665Z,99040.97
2023-03-02T10:29:00.059Z,99033.81
2023-03-02T10:30:06.477Z,99031.09
2023-03-02T10:31:15.223Z,99033.63
2023-03-02T10:32:21.783Z,99023.91
2023-03-02T10:33:23.968Z,99035.03
2023-03-02T10:34:29.964Z,99030.47
2023-03-02T10:35:33.048Z,99029.53
2023-03-02T10:36:39.983Z,99029.44
2023-03-02T10:37:42.877Z,99023.16
2023-03-02T10:38:45.514Z,99025.88
2023-03-02T10:39:48.539Z,99026.84
2023-03-02T10:40:56.978Z,99026.84
2023-03-02T10:42:03.076Z,99019.94
2023-03-02T10:43:06.388Z,99014.66
2023-03-02T10:44:15.562Z,99021.50
2023-03-02T10:45:24.749Z,99011.09
2023-03-02T10:46:41.063Z,99015.25
2023-03-02T10:47:43.133Z,99015.06
2023-03-02T10:48:51.101Z,99017.41
2023-03-02T10:49:54.642Z,99011.06
2023-03-02T10:50:58.295Z,99014.41
2023-03-02T10:52:02.720Z,99002.94
2023-03-02T10:53:08.618Z,99010.44
2023-03-02T10:54:11.709Z,98998.91
2023-03-02T10:55:16.852Z,99006.47
2023-03-02T10:56:20.855Z,98999.41
2023-03-02T10:57:34.181Z,99004.38
2023-03-02T10:58:37.037Z,98997.88
2023-03-02T10:59:44.680Z,99002.69
2023-03-02T11:00:57.022Z,98994.63
2023-03-02T11:02:02.520Z,98997.84
2023-03-02T11:03:18.732Z,98995.03
2023-03-02T11:04:20.707Z,98993.13
2023-03-02T11:05:29.035Z,98992.94
2023-03-02T11:06:32.143Z,98987.47
2023-03-02T11:07:34.083Z,98977.56
2023-03-02T11:08:36.936Z,98974.63
2023-03-02T11:09:38.928Z,98980.13
2023-03-02T11:10:43.125Z,98973.38
2023-03-02T11:11:49.961Z,98978.59
2023-03-02T11:12:53.865Z,98971.75
2023-03-02T11:13:57.233Z,98971.06
2023-03-02T11:15:18.903Z,98970.16
2023-03-02T11:16:28.417Z,98959.97
2023-03-02T11:17:34.441Z,98967.31
2023-03-02T11:18:39.721Z,98966.59
2023-03-02T11:19:42.198Z,98966.59
2023-03-02T11:20:48.645Z,98958.91
2023-03-02T11:21:55.268Z,98970.41
2023-03-02T11:23:04.039Z,98960.19
2023-03-02T11:24:12.258Z,98962.56
2023-03-02T11:25:23.781Z,98959.81
2023-03-02T11:26:29.241Z,98966.94
2023-03-02T11:27:33.939Z,98970.25
2023-03-02T11:28:45.611Z,98956.25
2023-03-02T11:29:51.360Z,98960.66
2023-03-02T11:30:56.592Z,98956.25
2023-03-02T11:32:05.449Z,98962.56
2023-03-02T11:33:15.294Z,98957.81
2023-03-02T11:34:26.122Z,98962.56
2023-03-02T11:35:32.862Z,98956.06
2023-03-02T11:36:44.951Z,98962.47
2023-03-02T11:37:49.967Z,98949.78
2023-03-02T11:38:54.958Z,98942.91
2023-03-02T11:40:17.163Z,98950.47
2023-03-02T11:41:29.697Z,98939.47
2023-03-02T11:42:35.524Z,98954.16
2023-03-02T11:43:37.445Z,98946.47
2023-03-02T11:44:40.291Z,98949.06
2023-03-02T11:45:45.372Z,98942.19
2023-03-02T11:46:49.706Z,98938.75
2023-03-02T11:48:02.429Z,98940.91
2023-03-02T11:49:12.688Z,98930.81
2023-03-02T11:50:16.595Z,98939.09
2023-03-02T11:51:21.469Z,98936.34
2023-03-02T11:52:26.832Z,98932.91
2023-03-02T11:53:34.502Z,98933.06
2023-03-02T11:54:39.789Z,98927.00
2023-03-02T11:55:45.771Z,98927.47
2023-03-02T11:56:47.640Z,98931.47
2023-03-02T11:57:52.167Z,98926.63
2023-03-02T11:58:56.707Z,98924.38
2023-03-02T12:00:00.658Z,98919.75
2023-03-02T12:01:04.555Z,98917.59
2023-03-02T12:02:11.797Z,98923.97
2023-03-02T12:03:21.517Z,98920.72
2023-03-02T12:04:32.292Z,98916.41
2023-03-02T12:05:37.041Z,98918.78
2023-03-02T12:06:40.175Z,98913.56
2023-03-02T12:08:03.022Z,98908.34
2023-03-02T12:09:30.769Z,98908.94
2023-03-02T12:10:38.230Z,98902.38
2023-03-02T12:11:41.957Z,98907.09
2023-03-02T12:12:48.409Z,98910.84
2023-03-02T12:14:00.717Z,98904.19
2023-03-02T12:15:03.844Z,98901.66
2023-03-02T12:16:20.503Z,98905.06
2023-03-02T12:17:31.439Z,98906.94
2023-03-02T12:18:46.113Z,98906.84
2023-03-02T12:19:51.273Z,98905.22
2023-03-02T12:21:00.534Z,98905.81
2023-03-02T12:22:07.360Z,98900.31
2023-03-02T12:23:21.114Z,98901.16
2023-03-02T12:24:26.092Z,98898.59
2023-03-02T12:25:38.013Z,98894.38
2023-03-02T12:26:40.770Z,98893.19
2023-03-02T12:27:42.699Z,98896.56
2023-03-02T12:28:58.995Z,98894.22
2023-03-02T12:30:24.275Z,98879.91
2023-03-02T12:31:28.197Z,98881.06
2023-03-02T12:32:31.410Z,98885.19
2023-03-02T12:33:41.756Z,98872.53
2023-03-02T12:34:46.556Z,98878.59
2023-03-02T12:35:51.896Z,98868.94
2023-03-02T12:36:57.597Z,98880.25
2023-03-02T12:38:01.742Z,98887.97
2023-03-02T12:39:15.714Z,98880.63
2023-03-02T12:40:25.561Z,98872.63